createdAt,value
2018-02-08T00:00:02.693Z,25.95
2018-02-08T00:00:25.935Z,25.27
2018-02-08T00:00:49.738Z,24.40
2018-02-08T00:01:13.844Z,23.80
2018-02-08T00:01:37.644Z,24.87
2018-02-08T00:02:01.662Z,25.60
2018-02-08T00:02:25.458Z,25.58
2018-02-08T00:02:49.504Z,25.85
2018-02-08T00:03:13.337Z,25.75
2018-02-08T00:03:37.366Z,25.50
2018-02-08T00:04:01.428Z,24.77
2018-02-08T00:04:25.175Z,25.23
2018-02-08T00:04:49.221Z,25.55
2018-02-08T00:05:13.124Z,26.30
2018-02-08T00:05:37.184Z,26.50
2018-02-08T00:06:00.990Z,26.58
2018-02-08T00:06:25.033Z,26.50
2018-02-08T00:06:48.773Z,26.05
2018-02-08T00:07:12.299Z,26.08
2018-02-08T00:07:36.070Z,26.05
2018-02-08T00:07:59.821Z,26.50
2018-02-08T00:08:23.616Z,26.48
2018-02-08T00:08:47.640Z,25.62
2018-02-08T00:09:11.395Z,24.90
2018-02-08T00:09:35.469Z,25.58
2018-02-08T00:09:59.241Z,26.60
2018-02-08T00:10:22.708Z,27.20
2018-02-08T00:10:46.468Z,26.55
2018-02-08T00:11:10.213Z,25.62
2018-02-08T00:11:33.662Z,25.07
2018-02-08T00:11:57.417Z,26.25
2018-02-08T00:12:21.159Z,27.40
2018-02-08T00:12:44.921Z,26.70
2018-02-08T00:13:08.929Z,26.05
2018-02-08T00:13:32.722Z,25.92
2018-02-08T00:13:56.268Z,26.25
2018-02-08T00:14:20.046Z,25.80
2018-02-08T00:14:43.788Z,25.92
2018-02-08T00:15:07.573Z,26.30
2018-02-08T00:15:31.442Z,25.70
2018-02-08T00:15:55.505Z,25.40
2018-02-08T00:16:19.385Z,26.25
2018-02-08T00:16:43.465Z,26.40
2018-02-08T00:17:07.252Z,26.40
2018-02-08T00:17:31.288Z,25.30
2018-02-08T00:17:55.034Z,25.85
2018-02-08T00:18:18.509Z,25.33
2018-02-08T00:18:42.251Z,25.98
2018-02-08T00:19:06.007Z,26.25
2018-02-08T00:19:29.818Z,27.05
2018-02-08T00:19:53.922Z,26.42
2018-02-08T00:20:17.681Z,26.27
2018-02-08T00:20:41.794Z,25.42
2018-02-08T00:21:05.599Z,25.73
2018-02-08T00:21:29.679Z,26.30
2018-02-08T00:21:53.450Z,26.50
2018-02-08T00:22:28.482Z,26.42
2018-02-08T00:22:52.296Z,26.02
2018-02-08T00:23:16.332Z,26.37
2018-02-08T00:23:40.097Z,26.17
2018-02-08T00:24:03.601Z,26.30
2018-02-08T00:24:27.392Z,26.42
2018-02-08T00:24:51.203Z,25.95
2018-02-08T00:25:14.986Z,25.40
2018-02-08T00:25:38.998Z,25.85
2018-02-08T00:26:02.837Z,25.90
2018-02-08T00:26:26.917Z,26.98
2018-02-08T00:26:50.807Z,26.95
2018-02-08T00:27:14.578Z,27.00
2018-02-08T00:27:38.089Z,26.80
2018-02-08T00:28:01.835Z,27.87
2018-02-08T00:28:25.592Z,27.77
2018-02-08T00:28:49.385Z,27.60
2018-02-08T00:29:13.408Z,26.45
2018-02-08T00:29:37.231Z,26.52
2018-02-08T00:30:01.283Z,25.85
2018-02-08T00:30:25.080Z,26.27
2018-02-08T00:30:49.173Z,27.25
2018-02-08T00:31:13.013Z,27.70
2018-02-08T00:31:37.041Z,28.25
2018-02-08T00:32:00.876Z,28.27
2018-02-08T00:32:25.059Z,27.62
2018-02-08T00:32:48.814Z,27.77
2018-02-08T00:33:12.834Z,27.20
2018-02-08T00:33:36.657Z,26.25
2018-02-08T00:34:00.809Z,25.83
2018-02-08T00:34:24.592Z,25.60
2018-02-08T00:34:48.387Z,27.35
2018-02-08T00:35:12.493Z,27.40
2018-02-08T00:35:36.274Z,26.73
2018-02-08T00:35:59.759Z,26.23
2018-02-08T00:36:23.561Z,27.73
2018-02-08T00:36:47.380Z,27.70
2018-02-08T00:37:11.124Z,26.67
2018-02-08T00:37:35.072Z,25.33
2018-02-08T00:37:58.544Z,26.40
2018-02-08T00:38:22.385Z,27.15
2018-02-08T00:38:46.348Z,27.60
2018-02-08T00:39:10.236Z,27.30
2018-02-08T00:39:33.974Z,26.73
2018-02-08T00:39:57.730Z,26.50
2018-02-08T00:40:21.499Z,26.08
2018-02-08T00:40:45.061Z,25.80
2018-02-08T00:41:08.822Z,25.92
2018-02-08T00:41:32.584Z,26.40
2018-02-08T00:41:56.335Z,26.92
2018-02-08T00:42:20.389Z,26.30
2018-02-08T00:42:44.167Z,26.27
2018-02-08T00:43:07.649Z,26.58
2018-02-08T00:43:31.459Z,26.65
2018-02-08T00:43:55.273Z,26.85
2018-02-08T00:44:19.139Z,27.75
2018-02-08T00:44:42.880Z,27.55
2018-02-08T00:45:06.942Z,27.23
2018-02-08T00:45:30.711Z,26.70
2018-02-08T00:45:54.800Z,26.73
2018-02-08T00:46:18.458Z,27.23
2018-02-08T00:46:42.240Z,28.10
2018-02-08T00:47:05.659Z,27.83
2018-02-08T00:47:29.420Z,27.10
2018-02-08T00:47:52.897Z,27.37
2018-02-08T00:48:16.642Z,27.60
2018-02-08T00:48:40.431Z,27.33
2018-02-08T00:49:04.249Z,26.87
2018-02-08T00:49:28.339Z,26.60
2018-02-08T00:49:52.135Z,26.50
2018-02-08T00:50:16.032Z,27.73
2018-02-08T00:50:40.060Z,28.10
2018-02-08T00:51:04.145Z,27.87
2018-02-08T00:51:28.024Z,27.98
2018-02-08T00:51:51.809Z,28.35
2018-02-08T00:52:15.832Z,26.80
2018-02-08T00:52:39.866Z,26.77
2018-02-08T00:53:03.715Z,27.17
2018-02-08T00:53:27.755Z,28.38
2018-02-08T00:53:51.617Z,28.90
2018-02-08T00:54:15.094Z,28.13
2018-02-08T00:54:38.954Z,27.50
2018-02-08T00:55:02.717Z,27.08
2018-02-08T00:55:26.459Z,26.67
2018-02-08T00:55:50.217Z,26.62
2018-02-08T00:56:14.316Z,26.87
2018-02-08T00:56:38.132Z,26.67
2018-02-08T00:57:02.244Z,25.75
2018-02-08T00:57:25.996Z,26.50
2018-02-08T00:57:50.124Z,27.17
2018-02-08T00:58:13.986Z,27.83
2018-02-08T00:58:37.832Z,28.17
2018-02-08T00:59:01.858Z,28.12
2018-02-08T00:59:25.942Z,28.12
2018-02-08T00:59:49.683Z,29.10
2018-02-08T01:00:13.702Z,28.70
2018-02-08T01:00:37.486Z,28.90
2018-02-08T01:01:01.563Z,28.65
2018-02-08T01:01:25.674Z,29.48
2018-02-08T01:01:49.521Z,29.48
2018-02-08T01:02:13.341Z,28.80
2018-02-08T01:02:37.386Z,28.12
2018-02-08T01:03:01.169Z,28.60
2018-02-08T01:03:25.302Z,28.75
2018-02-08T01:03:49.096Z,27.10
2018-02-08T01:04:13.130Z,26.90
2018-02-08T01:04:36.996Z,26.98
2018-02-08T01:05:01.030Z,27.25
2018-02-08T01:05:24.870Z,26.35
2018-02-08T01:05:48.884Z,26.60
2018-02-08T01:06:12.347Z,26.40
2018-02-08T01:06:36.092Z,27.50
2018-02-08T01:06:59.876Z,28.12
2018-02-08T01:07:23.791Z,28.70
2018-02-08T01:07:47.546Z,28.83
2018-02-08T01:08:11.582Z,29.00
2018-02-08T01:08:35.375Z,28.52
2018-02-08T01:08:59.393Z,28.15
2018-02-08T01:09:22.884Z,28.20
2018-02-08T01:09:46.640Z,28.50
2018-02-08T01:10:10.583Z,28.83
2018-02-08T01:10:34.378Z,28.20
2018-02-08T01:10:58.195Z,27.10
2018-02-08T01:11:21.939Z,27.10
2018-02-08T01:11:45.397Z,27.25
2018-02-08T01:12:09.150Z,26.67
2018-02-08T01:12:32.928Z,26.25
2018-02-08T01:12:56.666Z,26.48
2018-02-08T01:13:20.149Z,26.95
2018-02-08T01:13:43.980Z,27.00
2018-02-08T01:14:07.777Z,26.90
2018-02-08T01:14:31.573Z,26.52
2018-02-08T01:14:55.616Z,27.25
2018-02-08T01:15:19.373Z,28.52
2018-02-08T01:15:42.868Z,28.17
2018-02-08T01:16:06.637Z,28.10
2018-02-08T01:16:30.425Z,27.83
2018-02-08T01:16:54.261Z,27.83
2018-02-08T01:17:18.282Z,28.08
2018-02-08T01:17:42.073Z,28.05
2018-02-08T01:18:06.160Z,27.45
2018-02-08T01:18:29.991Z,26.90
2018-02-08T01:18:54.045Z,27.33
2018-02-08T01:19:17.820Z,27.48
2018-02-08T01:19:41.289Z,27.37
2018-02-08T01:20:05.041Z,27.75
2018-02-08T01:20:28.803Z,28.10
2018-02-08T01:20:52.655Z,27.65
2018-02-08T01:21:16.683Z,26.48
2018-02-08T01:21:40.492Z,27.13
2018-02-08T01:22:04.537Z,27.33
2018-02-08T01:22:28.281Z,27.45
2018-02-08T01:22:51.771Z,27.95
2018-02-08T01:23:15.529Z,27.85
2018-02-08T01:23:39.396Z,27.73
2018-02-08T01:24:03.165Z,27.23
2018-02-08T01:24:27.258Z,26.30
2018-02-08T01:24:51.052Z,26.33
2018-02-08T01:25:15.087Z,26.20
2018-02-08T01:25:38.834Z,26.00
2018-02-08T01:26:02.330Z,26.80
2018-02-08T01:26:26.079Z,27.85
2018-02-08T01:26:49.832Z,27.75
2018-02-08T01:27:13.632Z,27.58
2018-02-08T01:27:37.178Z,27.92
2018-02-08T01:28:00.970Z,27.90
2018-02-08T01:28:24.760Z,28.10
2018-02-08T01:28:48.541Z,28.15
2018-02-08T01:29:12.576Z,28.05
2018-02-08T01:29:36.377Z,26.90
2018-02-08T01:30:00.403Z,27.40
2018-02-08T01:30:23.885Z,27.40
2018-02-08T01:30:47.642Z,27.98
2018-02-08T01:31:11.406Z,27.90
2018-02-08T01:31:35.157Z,27.40
2018-02-08T01:31:59.172Z,26.77
2018-02-08T01:32:22.919Z,27.35
2018-02-08T01:32:46.373Z,27.30
2018-02-08T01:33:10.145Z,27.80
2018-02-08T01:33:33.898Z,27.58
2018-02-08T01:33:57.343Z,27.50
2018-02-08T01:34:21.113Z,27.48
2018-02-08T01:34:44.915Z,27.50
2018-02-08T01:35:08.670Z,27.27
2018-02-08T01:35:32.517Z,27.60
2018-02-08T01:35:56.555Z,27.90
2018-02-08T01:36:20.061Z,28.07
2018-02-08T01:36:43.802Z,28.10
2018-02-08T01:37:07.664Z,27.80
2018-02-08T01:37:31.402Z,28.45
2018-02-08T01:37:55.157Z,28.70
2018-02-08T01:38:19.250Z,28.45
2018-02-08T01:38:42.996Z,27.75
2018-02-08T01:39:06.474Z,27.27
2018-02-08T01:39:30.334Z,26.62
2018-02-08T01:39:54.131Z,26.90
2018-02-08T01:40:17.880Z,27.20
2018-02-08T01:40:41.926Z,27.05
2018-02-08T01:41:05.690Z,27.62
2018-02-08T01:41:29.792Z,27.15
2018-02-08T01:41:53.570Z,27.27
2018-02-08T01:42:17.034Z,26.92
2018-02-08T01:42:40.821Z,27.35
2018-02-08T01:43:04.578Z,27.00
2018-02-08T01:43:28.383Z,28.20
2018-02-08T01:43:52.402Z,27.92
2018-02-08T01:44:16.153Z,28.08
2018-02-08T01:44:39.596Z,28.62
2018-02-08T01:45:03.404Z,29.98
2018-02-08T01:45:27.161Z,29.05
2018-02-08T01:45:50.364Z,28.20
2018-02-08T01:46:14.200Z,27.48
2018-02-08T01:46:37.974Z,27.45
2018-02-08T01:47:01.997Z,28.87
2018-02-08T01:47:25.744Z,29.30
2018-02-08T01:47:49.238Z,29.17
2018-02-08T01:48:13.013Z,28.12
2018-02-08T01:48:36.798Z,28.98
2018-02-08T01:49:00.565Z,29.25
2018-02-08T01:49:47.102Z,30.83
2018-02-08T01:50:10.846Z,29.05
2018-02-08T01:50:34.656Z,27.25
2018-02-08T01:50:58.416Z,27.60
2018-02-08T01:51:22.176Z,28.02
2018-02-08T01:51:45.730Z,28.55
2018-02-08T01:52:09.496Z,28.08
2018-02-08T01:52:33.257Z,28.23
2018-02-08T01:52:57.101Z,27.30
2018-02-08T01:53:20.900Z,28.00
2018-02-08T01:53:44.433Z,28.73
2018-02-08T01:54:08.228Z,29.40
2018-02-08T01:54:31.980Z,30.02
2018-02-08T01:54:55.741Z,29.85
2018-02-08T01:55:19.761Z,29.00
2018-02-08T01:55:43.581Z,28.52
2018-02-08T01:56:07.039Z,28.60
2018-02-08T01:56:30.898Z,29.33
2018-02-08T01:56:54.624Z,29.70
2018-02-08T01:57:18.512Z,29.45
2018-02-08T01:57:42.285Z,28.33
2018-02-08T01:58:06.372Z,28.00
2018-02-08T01:58:30.212Z,28.87
2018-02-08T01:58:54.296Z,30.33
2018-02-08T01:59:18.052Z,30.75
2018-02-08T01:59:42.137Z,29.65
2018-02-08T02:00:05.960Z,29.75
2018-02-08T02:00:30.117Z,30.62
2018-02-08T02:00:53.889Z,30.37
2018-02-08T02:01:17.965Z,29.50
2018-02-08T02:01:41.709Z,29.00
2018-02-08T02:02:05.211Z,28.65
2018-02-08T02:02:28.944Z,28.38
2018-02-08T02:02:52.785Z,30.15
2018-02-08T02:03:16.534Z,29.87
2018-02-08T02:03:40.685Z,29.52
2018-02-08T02:04:04.458Z,29.60
2018-02-08T02:04:28.528Z,28.70
2018-02-08T02:04:52.287Z,28.25
2018-02-08T02:05:16.320Z,27.92
2018-02-08T02:05:40.069Z,28.67
2018-02-08T02:06:03.528Z,29.80
2018-02-08T02:06:27.307Z,30.08
2018-02-08T02:06:51.059Z,31.05
2018-02-08T02:07:15.111Z,31.15
2018-02-08T02:07:38.858Z,30.77
2018-02-08T02:08:02.325Z,29.90
2018-02-08T02:08:26.094Z,29.77
2018-02-08T02:08:49.845Z,28.55
2018-02-08T02:09:13.637Z,27.20
2018-02-08T02:09:37.664Z,26.77
2018-02-08T02:10:01.697Z,28.40
2018-02-08T02:10:25.566Z,28.87
2018-02-08T02:10:49.620Z,29.25
2018-02-08T02:11:13.365Z,29.15
2018-02-08T02:11:37.418Z,28.65
2018-02-08T02:12:01.173Z,28.90
2018-02-08T02:12:24.765Z,28.83
2018-02-08T02:12:48.563Z,28.75
2018-02-08T02:13:12.529Z,29.37
2018-02-08T02:13:36.344Z,29.05
2018-02-08T02:14:00.151Z,29.20
2018-02-08T02:14:23.969Z,28.73
2018-02-08T02:14:48.024Z,28.65
2018-02-08T02:15:11.811Z,28.67
2018-02-08T02:15:35.833Z,29.15
2018-02-08T02:16:00.031Z,29.05
2018-02-08T02:16:23.779Z,28.73
2018-02-08T02:16:47.535Z,28.65
2018-02-08T02:17:10.994Z,29.08
2018-02-08T02:17:34.794Z,29.23
2018-02-08T02:17:58.540Z,29.48
2018-02-08T02:18:22.304Z,29.60
2018-02-08T02:18:45.817Z,28.60
2018-02-08T02:19:09.362Z,27.77
2018-02-08T02:19:33.207Z,28.35
2018-02-08T02:19:57.285Z,28.48
2018-02-08T02:20:21.132Z,29.27
2018-02-08T02:20:45.150Z,29.10
2018-02-08T02:21:09.121Z,28.23
2018-02-08T02:21:32.909Z,27.83
2018-02-08T02:21:56.946Z,28.10
2018-02-08T02:22:20.700Z,28.60
2018-02-08T02:22:44.149Z,29.73
2018-02-08T02:23:07.952Z,29.87
2018-02-08T02:23:31.749Z,30.00
2018-02-08T02:23:55.520Z,29.52
2018-02-08T02:24:19.587Z,29.87
2018-02-08T02:24:43.072Z,30.10
2018-02-08T02:25:06.872Z,30.60
2018-02-08T02:25:30.607Z,30.62
2018-02-08T02:25:54.559Z,29.50
2018-02-08T02:26:18.313Z,29.98
2018-02-08T02:26:42.164Z,28.33
2018-02-08T02:27:06.251Z,28.08
2018-02-08T02:27:29.877Z,28.40
2018-02-08T02:27:53.654Z,29.35
2018-02-08T02:28:17.396Z,29.05
2018-02-08T02:28:41.205Z,29.10
2018-02-08T02:29:04.485Z,28.73
2018-02-08T02:29:28.281Z,28.45
2018-02-08T02:29:52.077Z,28.15
2018-02-08T02:30:15.836Z,28.48
2018-02-08T02:30:39.685Z,28.95
2018-02-08T02:31:03.481Z,28.58
2018-02-08T02:31:27.524Z,28.25
2018-02-08T02:31:51.598Z,29.35
2018-02-08T02:32:15.364Z,30.77
2018-02-08T02:32:39.384Z,30.88
2018-02-08T02:33:03.174Z,29.92
2018-02-08T02:33:27.184Z,28.70
2018-02-08T02:33:51.273Z,29.00
2018-02-08T02:34:15.034Z,29.75
2018-02-08T02:34:39.071Z,29.33
2018-02-08T02:35:02.565Z,29.33
2018-02-08T02:35:26.389Z,29.90
2018-02-08T02:35:50.211Z,30.90
2018-02-08T02:36:13.972Z,29.80
2018-02-08T02:36:37.793Z,29.87
2018-02-08T02:37:01.256Z,30.47
2018-02-08T02:37:24.997Z,29.75
2018-02-08T02:37:48.815Z,29.98
2018-02-08T02:38:12.584Z,29.37
2018-02-08T02:38:36.344Z,29.42
2018-02-08T02:38:59.807Z,29.37
2018-02-08T02:39:23.593Z,29.33
2018-02-08T02:39:47.381Z,28.73
2018-02-08T02:40:11.153Z,29.20
2018-02-08T02:40:34.655Z,29.52
2018-02-08T02:40:58.410Z,29.42
2018-02-08T02:41:22.145Z,28.55
2018-02-08T02:41:45.920Z,27.85
2018-02-08T02:42:09.954Z,27.80
2018-02-08T02:42:33.910Z,28.80
2018-02-08T02:42:57.947Z,28.15
2018-02-08T02:43:21.816Z,28.05
2018-02-08T02:43:45.292Z,27.50
2018-02-08T02:44:09.049Z,28.73
2018-02-08T02:44:32.856Z,29.70
2018-02-08T02:44:56.674Z,29.60
2018-02-08T02:45:20.473Z,28.92
2018-02-08T02:45:44.551Z,29.10
2018-02-08T02:46:08.383Z,28.87
2018-02-08T02:46:32.443Z,29.17
2018-02-08T02:46:56.248Z,28.77
2018-02-08T02:47:20.323Z,28.12
2018-02-08T02:47:44.070Z,28.62
2018-02-08T02:48:07.514Z,29.58
2018-02-08T02:48:31.323Z,29.63
2018-02-08T02:48:55.161Z,28.60
2018-02-08T02:49:18.973Z,27.87
2018-02-08T02:49:42.740Z,29.33
2018-02-08T02:50:05.885Z,29.60
2018-02-08T02:50:29.663Z,29.75
2018-02-08T02:50:53.727Z,29.23
2018-02-08T02:51:17.200Z,29.00
2018-02-08T02:51:41.012Z,29.27
2018-02-08T02:52:04.759Z,28.30
2018-02-08T02:52:28.508Z,27.95
2018-02-08T02:52:52.406Z,27.40
2018-02-08T02:53:16.434Z,27.17
2018-02-08T02:53:40.282Z,27.05
2018-02-08T02:54:04.334Z,27.58
2018-02-08T02:54:28.069Z,28.27
2018-02-08T02:54:51.566Z,28.83
2018-02-08T02:55:15.328Z,29.42
2018-02-08T02:55:39.114Z,29.63
2018-02-08T02:56:02.886Z,29.75
2018-02-08T02:56:26.945Z,29.45
2018-02-08T02:56:50.713Z,29.17
2018-02-08T02:57:14.169Z,29.05
2018-02-08T02:57:37.920Z,29.67
2018-02-08T02:58:01.728Z,30.45
2018-02-08T02:58:25.544Z,31.90
2018-02-08T02:58:49.616Z,31.45
2018-02-08T02:59:13.388Z,30.67
2018-02-08T02:59:37.425Z,30.55
2018-02-08T03:00:01.530Z,30.65
2018-02-08T03:00:25.397Z,30.33
2018-02-08T03:00:49.189Z,29.83
2018-02-08T03:01:13.225Z,30.00
2018-02-08T03:01:36.684Z,29.50
2018-02-08T03:02:00.560Z,30.00
2018-02-08T03:02:24.465Z,29.60
2018-02-08T03:02:48.327Z,30.17
2018-02-08T03:03:12.115Z,30.65
2018-02-08T03:03:35.871Z,30.40
2018-02-08T03:03:59.981Z,30.67
2018-02-08T03:04:23.732Z,31.08
2018-02-08T03:04:47.752Z,31.17
2018-02-08T03:05:11.510Z,30.73
2018-02-08T03:05:34.996Z,30.08
2018-02-08T03:05:58.793Z,30.05
2018-02-08T03:06:22.625Z,30.30
2018-02-08T03:06:46.405Z,30.85
2018-02-08T03:07:10.524Z,29.98
2018-02-08T03:07:34.298Z,31.02
2018-02-08T03:07:58.116Z,30.02
2018-02-08T03:08:21.654Z,29.17
2018-02-08T03:08:45.412Z,29.30
2018-02-08T03:09:08.857Z,30.00
2018-02-08T03:09:32.608Z,31.33
2018-02-08T03:09:56.364Z,30.73
2018-02-08T03:10:20.112Z,30.70
2018-02-08T03:10:43.896Z,30.67
2018-02-08T03:11:07.744Z,30.62
2018-02-08T03:11:31.774Z,30.27
2018-02-08T03:11:55.549Z,30.17
2018-02-08T03:12:19.413Z,30.60
2018-02-08T03:12:43.268Z,31.20
2018-02-08T03:13:07.032Z,30.57
2018-02-08T03:13:30.792Z,30.80
2018-02-08T03:13:54.591Z,30.95
2018-02-08T03:14:18.408Z,30.60
2018-02-08T03:14:42.204Z,30.37
2018-02-08T03:15:06.317Z,29.92
2018-02-08T03:15:30.065Z,28.85
2018-02-08T03:15:54.097Z,28.27
2018-02-08T03:16:17.949Z,30.00
2018-02-08T03:16:42.002Z,31.08
2018-02-08T03:17:05.751Z,30.08
2018-02-08T03:17:29.854Z,28.92
2018-02-08T03:17:53.653Z,29.25
2018-02-08T03:18:17.110Z,29.70
2018-02-08T03:18:40.861Z,29.70
2018-02-08T03:19:04.606Z,30.37
2018-02-08T03:19:28.088Z,30.70
2018-02-08T03:19:51.841Z,30.67
2018-02-08T03:20:15.651Z,29.90
2018-02-08T03:20:39.389Z,29.67
2018-02-08T03:21:03.216Z,29.27
2018-02-08T03:21:27.296Z,29.10
2018-02-08T03:21:51.053Z,29.55
2018-02-08T03:22:14.551Z,29.10
2018-02-08T03:22:38.348Z,29.45
2018-02-08T03:23:02.172Z,29.30
2018-02-08T03:23:25.919Z,30.27
2018-02-08T03:23:49.473Z,30.47
2018-02-08T03:24:13.220Z,30.52
2018-02-08T03:24:37.012Z,30.40
2018-02-08T03:25:00.790Z,29.23
2018-02-08T03:25:24.550Z,28.62
2018-02-08T03:25:48.574Z,28.40
2018-02-08T03:26:12.357Z,27.90
2018-02-08T03:26:35.879Z,27.58
2018-02-08T03:26:59.624Z,28.35
2018-02-08T03:27:23.371Z,28.92
2018-02-08T03:27:47.132Z,28.40
2018-02-08T03:28:11.230Z,28.30
2018-02-08T03:28:34.975Z,28.33
2018-02-08T03:28:59.150Z,28.70
2018-02-08T03:29:24.017Z,28.27
2018-02-08T03:29:47.831Z,28.77
2018-02-08T03:30:11.733Z,28.38
2018-02-08T03:31:32.436Z,30.13
2018-02-08T03:31:56.323Z,30.45
2018-02-08T03:32:20.363Z,30.32
2018-02-08T03:32:44.402Z,29.77
2018-02-08T03:33:08.222Z,27.95
2018-02-08T03:33:32.389Z,29.58
2018-02-08T03:33:56.200Z,30.00
2018-02-08T03:34:20.006Z,29.27
2018-02-08T03:34:44.077Z,28.30
2018-02-08T03:35:07.836Z,27.95
2018-02-08T03:35:32.015Z,28.77
2018-02-08T03:35:55.777Z,30.23
2018-02-08T03:36:19.639Z,30.33
2018-02-08T03:36:43.680Z,29.75
2018-02-08T03:37:07.490Z,28.83
2018-02-08T03:37:31.659Z,28.98
2018-02-08T03:37:55.434Z,29.73
2018-02-08T03:38:19.474Z,31.50
2018-02-08T03:38:43.232Z,30.65
2018-02-08T03:39:07.393Z,30.08
2018-02-08T03:39:31.197Z,30.15
2018-02-08T03:39:54.808Z,30.90
2018-02-08T03:40:18.281Z,30.67
2018-02-08T03:40:42.054Z,30.50
2018-02-08T03:41:05.890Z,30.23
2018-02-08T03:41:29.953Z,30.52
2018-02-08T03:41:53.775Z,30.65
2018-02-08T03:42:17.833Z,30.00
2018-02-08T03:42:41.592Z,29.23
2018-02-08T03:43:05.571Z,29.87
2018-02-08T03:43:29.029Z,30.10
2018-02-08T03:43:52.863Z,30.62
2018-02-08T03:44:16.601Z,30.15
2018-02-08T03:44:40.357Z,29.83
2018-02-08T03:45:03.749Z,29.05
2018-02-08T03:45:27.549Z,29.50
2018-02-08T03:45:51.281Z,29.70
2018-02-08T03:46:15.036Z,29.83
2018-02-08T03:46:39.191Z,29.83
2018-02-08T03:47:02.960Z,30.02
2018-02-08T03:47:27.043Z,30.17
2018-02-08T03:47:50.863Z,28.02
2018-02-08T03:48:14.677Z,28.42
2018-02-08T03:48:38.730Z,29.52
2018-02-08T03:49:02.487Z,29.77
2018-02-08T03:49:26.050Z,29.15
2018-02-08T03:49:49.801Z,28.70
2018-02-08T03:50:13.602Z,28.90
2018-02-08T03:50:37.372Z,29.23
2018-02-08T03:51:01.491Z,28.10
2018-02-08T03:51:25.263Z,29.27
2018-02-08T03:51:48.737Z,30.63
2018-02-08T03:52:12.594Z,30.90
2018-02-08T03:52:36.403Z,30.25
2018-02-08T03:53:00.160Z,30.30
2018-02-08T03:53:23.915Z,30.25
2018-02-08T03:53:48.184Z,30.25
2018-02-08T03:54:11.950Z,28.62
2018-02-08T03:54:35.728Z,28.75
2018-02-08T03:54:59.233Z,29.57
2018-02-08T03:55:23.067Z,30.95
2018-02-08T03:55:46.828Z,31.37
2018-02-08T03:56:10.580Z,32.05
2018-02-08T03:56:34.353Z,31.00
2018-02-08T03:56:58.445Z,30.73
2018-02-08T03:57:22.300Z,30.42
2018-02-08T03:57:46.235Z,29.80
2018-02-08T03:58:10.075Z,30.10
2018-02-08T03:58:34.129Z,29.98
2018-02-08T03:58:57.923Z,30.23
2018-02-08T03:59:21.482Z,30.80
2018-02-08T03:59:45.328Z,31.00
2018-02-08T04:00:09.108Z,31.23
2018-02-08T04:00:32.933Z,30.42
2018-02-08T04:00:56.745Z,29.30
2018-02-08T04:01:20.508Z,29.50
2018-02-08T04:01:44.550Z,29.55
2018-02-08T04:02:08.766Z,29.98
2018-02-08T04:02:32.644Z,30.37
2018-02-08T04:02:56.469Z,29.77
2018-02-08T04:03:20.211Z,29.35
2018-02-08T04:03:44.376Z,29.92
2018-02-08T04:04:08.188Z,30.23
2018-02-08T04:04:31.729Z,29.93
2018-02-08T04:04:55.296Z,29.75
2018-02-08T04:05:19.074Z,30.65
2018-02-08T04:05:42.882Z,31.95
2018-02-08T04:06:06.968Z,31.23
2018-02-08T04:06:30.742Z,30.15
2018-02-08T04:06:54.780Z,28.80
2018-02-08T04:07:18.556Z,28.70
2018-02-08T04:07:42.644Z,29.10
2018-02-08T04:08:06.446Z,29.98
2018-02-08T04:08:30.165Z,29.83
2018-02-08T04:08:53.975Z,30.27
2018-02-08T04:09:17.790Z,31.33
2018-02-08T04:09:41.556Z,31.80
2018-02-08T04:10:05.306Z,31.27
2018-02-08T04:10:29.077Z,31.10
2018-02-08T04:10:53.117Z,30.77
2018-02-08T04:11:16.902Z,29.67
2018-02-08T04:11:40.942Z,29.23
2018-02-08T04:12:04.704Z,30.27
2018-02-08T04:12:28.268Z,30.30
2018-02-08T04:12:52.018Z,29.35
2018-02-08T04:13:15.796Z,29.30
2018-02-08T04:13:39.589Z,30.37
2018-02-08T04:14:03.356Z,31.87
2018-02-08T04:14:27.398Z,30.60
2018-02-08T04:14:51.486Z,29.67
2018-02-08T04:15:15.268Z,29.45
2018-02-08T04:15:39.321Z,29.70
2018-02-08T04:16:03.088Z,29.33
2018-02-08T04:16:27.129Z,28.77
2018-02-08T04:16:50.937Z,29.00
2018-02-08T04:17:14.973Z,29.23
2018-02-08T04:17:38.723Z,29.27
2018-02-08T04:18:02.259Z,31.12
2018-02-08T04:18:26.045Z,31.60
2018-02-08T04:18:49.804Z,30.83
2018-02-08T04:19:13.568Z,29.15
2018-02-08T04:19:37.603Z,28.62
2018-02-08T04:20:01.358Z,28.98
2018-02-08T04:20:25.410Z,29.95
2018-02-08T04:20:49.195Z,30.50
2018-02-08T04:21:13.227Z,30.33
2018-02-08T04:21:37.277Z,30.90
2018-02-08T04:22:01.066Z,29.55
2018-02-08T04:22:25.112Z,28.98
2018-02-08T04:22:48.954Z,29.25
2018-02-08T04:23:12.412Z,30.60
2018-02-08T04:23:36.188Z,30.02
2018-02-08T04:23:59.995Z,30.23
2018-02-08T04:24:23.785Z,30.30
2018-02-08T04:24:47.554Z,30.37
2018-02-08T04:25:11.652Z,30.73
2018-02-08T04:25:35.445Z,30.75
2018-02-08T04:25:59.465Z,30.73
2018-02-08T04:26:23.230Z,30.90
2018-02-08T04:26:47.269Z,30.95
2018-02-08T04:27:10.740Z,30.40
2018-02-08T04:27:34.545Z,30.75
2018-02-08T04:27:58.476Z,31.20
2018-02-08T04:28:22.331Z,30.10
2018-02-08T04:28:46.118Z,29.20
2018-02-08T04:29:09.924Z,29.48
2018-02-08T04:29:33.715Z,30.30
2018-02-08T04:29:57.742Z,31.80
2018-02-08T04:30:21.545Z,31.25
2018-02-08T04:30:45.643Z,31.17
2018-02-08T04:31:09.410Z,29.80
2018-02-08T04:31:33.404Z,29.90
2018-02-08T04:31:57.506Z,29.42
2018-02-08T04:32:21.303Z,29.50
2018-02-08T04:32:44.764Z,30.10
2018-02-08T04:33:08.514Z,29.85
2018-02-08T04:33:32.323Z,29.77
2018-02-08T04:33:56.103Z,29.65
2018-02-08T04:34:19.901Z,30.52
2018-02-08T04:34:43.958Z,31.35
2018-02-08T04:35:07.737Z,31.55
2018-02-08T04:35:31.809Z,30.67
2018-02-08T04:35:55.614Z,29.65
2018-02-08T04:36:19.674Z,29.05
2018-02-08T04:36:43.473Z,29.83
2018-02-08T04:37:07.513Z,31.40
2018-02-08T04:37:31.305Z,32.53
2018-02-08T04:37:54.785Z,32.72
2018-02-08T04:38:18.058Z,33.28
2018-02-08T04:38:52.861Z,33.92
2018-02-08T04:39:27.757Z,33.15
2018-02-08T04:40:02.784Z,32.20
2018-02-08T04:40:37.329Z,31.67
2018-02-08T04:41:12.288Z,30.95
2018-02-08T04:41:47.204Z,32.20
2018-02-08T04:42:22.006Z,33.17
2018-02-08T04:42:56.995Z,31.70
2018-02-08T04:43:31.719Z,30.62
2018-02-08T04:45:06.397Z,31.58
2018-02-08T04:45:41.556Z,32.25
2018-02-08T04:46:16.450Z,31.87
2018-02-08T04:46:51.313Z,30.52
2018-02-08T04:47:26.968Z,29.63
2018-02-08T04:48:07.527Z,29.95
2018-02-08T04:48:31.012Z,31.33
2018-02-08T04:48:54.766Z,31.67
2018-02-08T04:49:18.528Z,31.42
2018-02-08T04:49:42.308Z,31.95
2018-02-08T04:50:06.368Z,31.77
2018-02-08T04:50:30.154Z,31.45
2018-02-08T04:50:54.188Z,31.50
2018-02-08T04:51:17.934Z,31.23
2018-02-08T04:51:41.444Z,32.58
2018-02-08T04:52:05.293Z,31.62
2018-02-08T04:52:29.048Z,30.65
2018-02-08T04:52:52.797Z,30.52
2018-02-08T04:53:16.257Z,30.97
2018-02-08T04:53:40.069Z,30.20
2018-02-08T04:54:03.561Z,30.95
2018-02-08T04:54:27.620Z,30.85
2018-02-08T04:54:51.374Z,30.05
2018-02-08T04:55:15.550Z,29.55
2018-02-08T04:55:39.304Z,29.25
2018-02-08T04:56:03.342Z,29.67
2018-02-08T04:56:27.218Z,29.75
2018-02-08T04:56:51.045Z,29.58
2018-02-08T04:57:15.120Z,30.95
2018-02-08T04:57:38.892Z,32.05
2018-02-08T04:58:02.919Z,32.15
2018-02-08T04:58:26.777Z,31.40
2018-02-08T04:58:50.840Z,31.30
2018-02-08T04:59:14.638Z,30.88
2018-02-08T04:59:38.715Z,30.80
2018-02-08T05:00:02.514Z,30.60
2018-02-08T05:00:26.600Z,31.27
2018-02-08T05:00:50.381Z,31.15
2018-02-08T05:01:14.407Z,30.83
2018-02-08T05:01:37.987Z,31.17
2018-02-08T05:02:02.338Z,30.52
2018-02-08T05:02:26.033Z,31.60
2018-02-08T05:02:50.741Z,32.25
2018-02-08T05:03:14.503Z,33.50
2018-02-08T05:03:38.382Z,32.33
2018-02-08T05:04:02.152Z,31.85
2018-02-08T05:04:26.003Z,30.90
2018-02-08T05:04:49.761Z,31.02
2018-02-08T05:05:13.565Z,31.25
2018-02-08T05:05:37.661Z,31.00
2018-02-08T05:06:01.449Z,30.67
2018-02-08T05:06:25.565Z,30.60
2018-02-08T05:06:49.353Z,30.90
2018-02-08T05:07:13.120Z,31.65
2018-02-08T05:07:36.610Z,31.10
2018-02-08T05:08:00.376Z,30.23
2018-02-08T05:08:24.130Z,30.60
2018-02-08T05:08:47.927Z,32.38
2018-02-08T05:09:11.970Z,33.03
2018-02-08T05:09:35.809Z,31.90
2018-02-08T05:09:59.852Z,32.33
2018-02-08T05:10:23.626Z,31.83
2018-02-08T05:10:47.704Z,31.67
2018-02-08T05:11:11.520Z,30.55
2018-02-08T05:11:35.582Z,30.77
2018-02-08T05:11:59.340Z,30.88